Time;durP1;ratioP1;P1;durP2;ratioP2;P2;SDS_P1;SDS_P2;PMS_P1;PMS_P2;Temp;Humidity;BMP_temperature;BMP_pressure;BME280_temperature;BME280_humidity;BME280_pressure;Samples;Min_cycle;Max_cycle;Signal;HPM_P1;HPM_P2
2021/08/02 00:02:17;;;;;;;4.50;3.37;;;15.20;90.80;;;14.27;80.88;97557.47;4953558;28;20473;-79
2021/08/02 00:04:56;;;;;;;4.60;2.60;;;15.20;90.70;;;14.26;81.37;97555.00;4966276;28;20453;-79
2021/08/02 00:07:24;;;;;;;3.70;3.23;;;15.20;90.50;;;14.25;80.67;97561.50;4966186;28;20561;-80
2021/08/02 00:09:52;;;;;;;4.47;3.20;;;15.20;90.30;;;14.24;80.88;97559.84;4956680;28;21248;-79
2021/08/02 00:12:26;;;;;;;3.50;2.93;;;15.20;90.60;;;14.21;81.38;97561.16;4968710;28;21003;-79
2021/08/02 00:14:55;;;;;;;4.60;3.20;;;15.20;91.00;;;14.13;81.60;97562.41;4963260;28;20450;-79
2021/08/02 00:17:23;;;;;;;3.00;2.80;;;15.10;91.00;;;13.99;81.71;97539.41;4968070;28;20456;-80
2021/08/02 00:19:52;;;;;;;4.30;3.40;;;15.10;91.10;;;13.99;81.78;97544.81;4958287;28;20450;-80
2021/08/02 00:22:19;;;;;;;4.13;3.17;;;15.00;91.50;;;13.97;82.24;97549.69;4975925;28;20753;-80
2021/08/02 00:24:46;;;;;;;5.83;3.33;;;15.00;91.60;;;14.04;81.92;97572.09;4974098;28;20544;-80
2021/08/02 00:27:14;;;;;;;3.47;3.17;;;14.90;91.80;;;14.02;82.30;97568.78;4960556;28;20466;-79
2021/08/02 00:29:42;;;;;;;3.97;3.67;;;14.90;91.90;;;14.01;82.01;97564.41;4964731;28;20473;-79
2021/08/02 00:32:09;;;;;;;4.37;3.03;;;14.90;92.10;;;14.02;82.41;97563.34;4969279;28;20507;-79
2021/08/02 00:34:38;;;;;;;3.23;2.93;;;14.90;92.10;;;14.04;82.10;97569.38;4958907;28;21166;-80
2021/08/02 00:37:07;;;;;;;5.30;3.50;;;15.00;91.90;;;14.07;82.32;97568.03;4967191;28;20545;-79
2021/08/02 00:39:43;;;;;;;4.67;3.37;;;14.90;91.90;;;14.05;82.34;97571.00;4969302;28;20465;-80
2021/08/02 00:42:51;;;;;;;5.57;3.57;;;15.00;92.00;;;14.08;82.42;97572.38;4966818;28;20537;-80
2021/08/02 00:45:20;;;;;;;4.07;3.67;;;15.00;92.20;;;14.10;82.31;97571.06;4969484;28;20453;-80
2021/08/02 00:47:50;;;;;;;3.77;3.43;;;15.00;92.10;;;14.08;81.81;97561.53;4955476;28;21259;-79
2021/08/02 00:50:22;;;;;;;3.57;3.13;;;15.00;91.60;;;14.17;81.55;97568.19;4956747;28;20469;-79
2021/08/02 00:52:54;;;;;;;3.10;2.83;;;15.10;91.70;;;14.14;81.21;97564.06;4968123;28;20467;-80
2021/08/02 00:55:22;;;;;;;9.67;3.90;;;15.10;90.80;;;14.25;80.83;97575.09;4967983;28;20905;-80
2021/08/02 00:57:52;;;;;;;3.97;3.20;;;15.20;90.80;;;14.20;81.11;97572.31;4969554;28;20459;-80
2021/08/02 01:00:20;;;;;;;4.33;3.43;;;15.20;90.70;;;14.25;81.05;97575.09;4966559;28;20463;-80
2021/08/02 01:02:51;;;;;;;3.30;3.00;;;15.20;90.50;;;14.23;80.96;97572.59;4970282;28;20461;-80
2021/08/02 01:05:21;;;;;;;3.63;3.20;;;15.20;90.40;;;14.25;80.52;97564.22;4970440;28;20500;-80
2021/08/02 01:07:52;;;;;;;4.50;3.20;;;15.20;90.30;;;14.27;80.63;97576.50;4960472;28;21145;-80
2021/08/02 01:10:20;;;;;;;6.10;3.07;;;15.20;90.30;;;14.31;80.73;97576.78;4969029;28;20829;-80
2021/08/02 01:12:49;;;;;;;4.83;2.93;;;15.20;90.20;;;14.28;80.41;97574.56;4970346;28;20476;-80
2021/08/02 01:15:19;;;;;;;3.47;3.17;;;15.20;90.00;;;14.26;80.41;97563.97;4965080;28;20463;-79
2021/08/02 01:17:49;;;;;;;3.50;3.20;;;15.30;89.90;;;14.31;80.62;97579.50;4969815;28;21205;-79
2021/08/02 01:20:18;;;;;;;7.10;3.40;;;15.30;90.00;;;14.29;80.52;97581.66;4971327;28;20452;-80
2021/08/02 01:22:48;;;;;;;3.97;3.23;;;15.20;90.10;;;14.28;80.69;97583.56;4968076;28;20462;-80
2021/08/02 01:26:09;;;;;;;6.20;3.50;;;15.30;90.30;;;14.27;80.85;97584.63;4968185;28;20821;-77
2021/08/02 01:29:32;;;;;;;5.70;3.70;;;15.20;90.30;;;14.27;81.04;97590.06;4970176;28;20540;-79
2021/08/02 01:31:59;;;;;;;3.73;3.17;;;15.20;90.60;;;14.19;80.82;97582.34;4968398;28;20480;-78
2021/08/02 01:34:26;;;;;;;10.70;3.63;;;15.20;90.20;;;14.29;80.80;97592.53;4972475;28;20445;-80
2021/08/02 01:36:53;;;;;;;5.77;2.90;;;15.20;90.40;;;14.21;80.81;97590.25;4966779;28;20878;-79
2021/08/02 01:39:21;;;;;;;4.97;3.50;;;15.30;90.40;;;14.29;81.30;97598.78;4967594;28;20469;-77
2021/08/02 01:41:48;;;;;;;3.50;3.30;;;15.30;90.60;;;14.29;81.11;97600.69;4974734;28;20464;-80
2021/08/02 01:44:15;;;;;;;4.37;3.20;;;15.30;90.80;;;14.30;81.28;97605.03;4973687;28;20461;-79
2021/08/02 01:46:48;;;;;;;4.80;3.37;;;15.20;91.00;;;14.27;81.26;97606.38;4970650;28;20820;-77
2021/08/02 01:49:24;;;;;;;5.90;3.10;;;15.20;90.70;;;14.26;81.49;97603.91;4977401;28;20445;-80
2021/08/02 01:51:53;;;;;;;6.70;3.70;;;15.20;90.80;;;14.18;81.14;97594.28;4987429;28;20463;-82
2021/08/02 01:54:31;;;;;;;4.53;3.40;;;15.20;90.90;;;14.08;81.54;97591.41;4984638;28;20466;-80
2021/08/02 01:57:07;;;;;;;5.57;3.60;;;15.10;91.00;;;14.10;82.29;97603.66;4984210;28;20453;-82
2021/08/02 01:59:40;;;;;;;4.50;4.10;;;15.10;91.50;;;14.03;82.48;97605.75;4985002;28;20449;-81
2021/08/02 02:02:11;;;;;;;4.50;4.10;;;15.00;91.60;;;13.92;82.77;97606.66;4976488;28;20461;-80
2021/08/02 02:04:43;;;;;;;4.80;3.83;;;14.90;92.10;;;13.93;83.11;97621.88;4973074;28;20449;-78
2021/08/02 02:07:13;;;;;;;4.30;3.97;;;14.90;92.30;;;13.81;83.26;97609.19;4974293;28;20457;-78
2021/08/02 02:09:42;;;;;;;4.13;3.73;;;14.80;92.50;;;13.79;83.61;97616.75;4973245;28;20459;-79
2021/08/02 02:12:11;;;;;;;5.20;4.63;;;14.80;92.90;;;13.75;83.76;97618.34;4966570;28;20493;-80
2021/08/02 02:14:39;;;;;;;5.50;4.47;;;14.70;93.30;;;13.67;84.36;97616.00;4967148;28;20451;-77
2021/08/02 02:17:09;;;;;;;6.70;4.53;;;14.70;93.80;;;13.59;84.45;97617.25;4970676;28;20464;-77
2021/08/02 02:19:38;;;;;;;4.50;3.90;;;14.60;94.00;;;13.59;84.53;97628.94;4973235;28;20496;-77
2021/08/02 02:22:05;;;;;;;4.93;4.30;;;14.50;94.50;;;13.54;85.00;97631.53;4964560;28;20824;-78
2021/08/02 02:24:36;;;;;;;6.20;4.57;;;14.50;94.70;;;13.48;85.54;97637.94;4969480;28;20452;-77
2021/08/02 02:27:07;;;;;;;5.20;4.50;;;14.40;95.10;;;13.45;85.52;97633.81;4965051;28;20961;-80
2021/08/02 02:29:35;;;;;;;6.30;4.40;;;14.40;96.00;;;13.43;85.93;97635.13;4964687;28;20466;-76
2021/08/02 02:32:05;;;;;;;5.10;4.60;;;14.30;96.30;;;13.35;85.92;97633.63;4969399;28;20556;-79
2021/08/02 02:34:34;;;;;;;8.70;5.10;;;14.30;96.80;;;13.45;85.58;97639.25;4968971;28;20450;-77
2021/08/02 02:37:01;;;;;;;5.37;4.87;;;14.40;96.50;;;13.46;85.65;97640.09;4971721;28;20453;-78
2021/08/02 02:39:30;;;;;;;6.03;4.90;;;14.40;96.20;;;13.48;85.42;97637.94;4966522;28;20472;-79
2021/08/02 02:41:58;;;;;;;5.27;4.73;;;14.40;96.20;;;13.49;85.43;97647.72;4969396;28;20446;-78
2021/08/02 02:44:27;;;;;;;6.20;5.13;;;14.40;96.10;;;13.46;85.82;97645.50;4968554;28;20460;-77
2021/08/02 02:46:55;;;;;;;8.20;5.17;;;14.40;96.30;;;13.48;85.69;97651.53;4966228;28;20451;-78
2021/08/02 02:49:23;;;;;;;9.73;5.30;;;14.40;96.50;;;13.52;85.98;97646.44;4970305;28;20460;-78
2021/08/02 02:51:51;;;;;;;6.33;5.73;;;14.40;96.50;;;13.48;85.76;97643.38;4971944;28;20469;-78
2021/08/02 02:54:20;;;;;;;8.10;6.23;;;14.40;96.00;;;13.48;85.34;97647.97;4964733;28;20560;-78
2021/08/02 02:56:48;;;;;;;10.93;5.73;;;14.50;95.60;;;13.45;85.48;97641.97;4969903;28;20468;-78
2021/08/02 02:59:15;;;;;;;6.07;5.47;;;14.50;96.00;;;13.53;85.42;97661.66;4965833;28;20450;-78
2021/08/02 03:01:47;;;;;;;6.20;5.60;;;14.50;96.20;;;13.52;85.34;97666.25;4966744;28;21002;-78
2021/08/02 03:04:15;;;;;;;5.60;5.20;;;14.50;95.80;;;13.53;85.71;97665.16;4969510;28;20485;-78
2021/08/02 03:06:43;;;;;;;9.47;5.40;;;14.50;95.90;;;13.54;85.48;97664.09;4967160;28;20464;-79
2021/08/02 03:09:14;;;;;;;6.43;5.93;;;14.50;95.90;;;13.54;85.56;97652.44;4970403;28;20472;-78
2021/08/02 03:11:42;;;;;;;7.33;5.63;;;14.50;96.00;;;13.54;85.32;97661.38;4967056;28;20887;-78
2021/08/02 03:14:10;;;;;;;6.37;5.77;;;14.50;96.00;;;13.54;85.38;97668.72;4977940;28;20455;-78
2021/08/02 03:16:37;;;;;;;5.90;5.30;;;14.60;95.90;;;13.48;85.48;97658.81;4970204;28;20466;-78
2021/08/02 03:19:05;;;;;;;8.47;5.10;;;14.50;95.90;;;13.50;85.58;97673.81;4964550;28;20560;-78
2021/08/02 03:21:32;;;;;;;7.17;5.60;;;14.50;95.80;;;13.52;85.35;97677.09;4970654;28;20455;-78
2021/08/02 03:24:11;;;;;;;6.37;5.77;;;14.50;95.40;;;13.50;85.33;97681.13;4986088;28;20458;-80
2021/08/02 03:26:45;;;;;;;8.50;5.87;;;14.40;95.60;;;13.50;85.46;97683.84;4988986;28;20472;-78
2021/08/02 03:29:31;;;;;;;5.47;4.97;;;14.40;95.80;;;13.44;85.48;97691.06;4988227;28;20492;-78
2021/08/02 03:32:02;;;;;;;7.37;5.63;;;14.40;95.90;;;13.36;85.59;97689.53;4970753;28;20498;-79
2021/08/02 03:34:34;;;;;;;8.63;5.90;;;14.30;96.00;;;13.24;85.63;97675.19;4968542;28;20446;-78
2021/08/02 03:37:04;;;;;;;7.73;6.47;;;14.30;95.90;;;13.28;85.57;97696.16;4969197;28;20461;-79
2021/08/02 03:39:32;;;;;;;9.30;6.27;;;14.30;96.20;;;13.28;86.10;97682.59;4969443;28;20461;-78
2021/08/02 03:42:01;;;;;;;9.37;7.20;;;14.20;96.40;;;13.25;85.77;97683.06;4967466;28;20487;-78
2021/08/02 03:44:29;;;;;;;7.13;6.50;;;14.20;96.50;;;13.17;86.10;97686.16;4967856;28;20540;-78
2021/08/02 03:46:56;;;;;;;6.63;6.00;;;14.20;96.80;;;13.01;86.07;97666.88;4955667;28;20454;-78
2021/08/02 03:49:24;;;;;;;9.43;7.20;;;14.10;97.00;;;13.14;85.99;97681.22;4967458;28;20460;-79
2021/08/02 03:51:58;;;;;;;8.50;7.07;;;14.10;96.70;;;13.15;86.20;97688.31;4965035;28;20553;-78
2021/08/02 03:54:26;;;;;;;7.57;6.93;;;14.10;96.70;;;13.07;86.29;97685.94;4962842;28;20441;-78
2021/08/02 03:56:54;;;;;;;8.93;8.13;;;14.00;96.90;;;12.93;86.06;97680.78;4963760;28;20562;-79
2021/08/02 03:59:22;;;;;;;8.17;7.53;;;14.00;97.20;;;13.06;86.33;97700.56;4958738;28;20868;-78
2021/08/02 04:01:50;;;;;;;8.77;7.67;;;14.00;97.30;;;13.00;86.48;97703.19;4966019;28;20454;-80
2021/08/02 04:04:17;;;;;;;9.20;8.40;;;14.00;97.90;;;12.98;86.61;97705.31;4964701;28;20454;-78
2021/08/02 04:06:44;;;;;;;9.50;8.50;;;13.90;97.60;;;12.99;86.77;97703.41;4968038;28;20459;-78
2021/08/02 04:09:14;;;;;;;10.47;8.33;;;14.00;97.80;;;12.95;86.80;97703.06;4968489;28;20529;-79
2021/08/02 04:11:42;;;;;;;9.40;8.60;;;13.90;97.70;;;12.94;86.83;97712.25;4962923;28;20502;-79
2021/08/02 04:14:10;;;;;;;15.23;7.90;;;13.90;97.80;;;12.95;86.63;97711.19;4964594;28;20916;-79
2021/08/02 04:16:38;;;;;;;10.10;9.10;;;13.90;97.50;;;12.97;86.80;97703.69;4966774;28;20456;-79
2021/08/02 04:19:05;;;;;;;10.13;9.23;;;13.90;97.50;;;12.93;86.62;97701.69;4967697;28;20492;-80
2021/08/02 04:21:33;;;;;;;11.10;10.00;;;14.00;97.70;;;13.01;86.07;97704.00;4970919;28;20544;-78
2021/08/02 04:23:59;;;;;;;10.10;9.20;;;14.00;97.60;;;13.02;86.13;97700.22;4959485;28;20489;-79
2021/08/02 04:26:28;;;;;;;9.40;8.50;;;14.10;96.90;;;13.10;85.84;97697.16;4968724;28;20467;-79
2021/08/02 04:28:56;;;;;;;10.40;9.27;;;14.20;96.00;;;13.23;85.50;97706.09;4961742;28;20464;-79
2021/08/02 04:31:24;;;;;;;8.93;8.23;;;14.20;95.50;;;13.32;85.20;97710.88;4970396;28;20450;-79
2021/08/02 04:33:51;;;;;;;10.93;8.43;;;14.30;95.20;;;13.52;84.38;97715.09;4967904;28;20473;-78
2021/08/02 04:36:20;;;;;;;9.30;8.40;;;14.50;94.50;;;13.81;83.38;97712.38;4966940;28;20461;-78
2021/08/02 04:38:48;;;;;;;8.60;7.17;;;14.90;93.30;;;14.14;81.61;97716.19;4967032;28;20464;-79
2021/08/02 04:41:15;;;;;;;6.90;6.30;;;15.60;88.90;;;14.26;80.94;97721.56;4967946;28;20464;-78
2021/08/02 04:43:43;;;;;;;6.50;5.90;;;15.70;87.50;;;14.33;80.73;97724.13;4974402;28;20453;-78
2021/08/02 04:46:11;;;;;;;7.40;6.70;;;15.70;87.40;;;14.66;79.39;97722.44;4974042;28;20497;-79
2021/08/02 04:48:37;;;;;;;6.47;5.83;;;16.20;84.60;;;15.38;76.97;97716.31;4973910;28;20447;-79
2021/08/02 04:51:04;;;;;;;6.60;6.10;;;17.40;78.70;;;15.88;74.34;97702.72;4964605;28;20489;-80
2021/08/02 04:53:31;;;;;;;6.77;6.20;;;18.50;72.80;;;16.02;73.82;97712.13;4960481;28;20469;-79
2021/08/02 04:55:58;;;;;;;6.00;5.40;;;18.60;71.20;;;16.50;72.62;97725.06;4965418;28;20485;-79
2021/08/02 04:58:25;;;;;;;5.63;5.07;;;19.00;69.60;;;16.65;71.60;97725.16;4968392;28;20512;-79
2021/08/02 05:00:54;;;;;;;5.97;5.57;;;19.30;67.80;;;15.73;73.77;97720.53;4967516;28;20968;-80
2021/08/02 05:03:21;;;;;;;6.17;5.50;;;18.30;68.40;;;15.43;75.73;97724.56;4968271;28;20480;-79
2021/08/02 05:05:47;;;;;;;8.50;6.10;;;17.50;71.40;;;15.76;74.31;97732.81;4966601;28;20476;-81
2021/08/02 05:08:14;;;;;;;6.93;5.37;;;17.90;71.40;;;16.05;73.40;97730.69;4967821;28;20548;-79
2021/08/02 05:10:41;;;;;;;9.50;6.47;;;18.70;68.40;;;15.86;74.07;97736.47;4961957;28;20470;-78
2021/08/02 05:13:08;;;;;;;8.40;6.07;;;18.40;68.40;;;15.53;74.42;97730.09;4970191;28;20489;-79
2021/08/02 05:15:35;;;;;;;6.67;6.10;;;17.70;70.10;;;15.78;73.94;97719.78;4965333;28;20475;-79
2021/08/02 05:18:03;;;;;;;8.57;6.37;;;18.30;69.30;;;15.82;74.30;97737.25;4962344;28;20460;-79
2021/08/02 05:20:31;;;;;;;7.37;6.50;;;18.20;69.10;;;15.92;73.31;97742.00;4957158;28;20449;-79
2021/08/02 05:22:58;;;;;;;7.80;6.00;;;18.50;68.60;;;16.25;72.79;97740.97;4970912;28;20448;-78
2021/08/02 05:25:25;;;;;;;7.53;6.40;;;18.90;67.80;;;16.56;71.77;97745.81;4965729;28;20455;-79
2021/08/02 05:27:53;;;;;;;7.50;6.20;;;19.70;66.10;;;16.82;70.58;97743.28;4952823;28;20541;-80
2021/08/02 05:30:21;;;;;;;8.00;5.47;;;20.10;64.20;;;17.18;69.32;97757.16;4965613;28;20564;-79
2021/08/02 05:32:48;;;;;;;6.43;5.60;;;20.30;63.40;;;17.48;68.21;97754.84;4967289;28;20477;-79
2021/08/02 05:35:16;;;;;;;5.27;4.87;;;20.70;62.70;;;17.40;67.69;97750.72;4962650;28;20493;-79
2021/08/02 05:37:44;;;;;;;6.97;5.63;;;20.80;61.60;;;17.39;68.16;97738.16;4972929;28;20453;-79
2021/08/02 05:40:12;;;;;;;5.83;5.30;;;20.60;61.60;;;17.89;66.51;97751.41;4973050;28;20455;-79
2021/08/02 05:42:40;;;;;;;5.70;5.13;;;21.00;61.60;;;17.45;67.90;97761.66;4964873;28;20456;-79
2021/08/02 05:45:09;;;;;;;5.93;5.43;;;20.30;62.00;;;17.62;67.04;97749.69;4971010;28;20465;-79
2021/08/02 05:47:36;;;;;;;6.20;5.60;;;20.20;62.40;;;17.45;67.67;97748.00;4970130;28;20455;-79
2021/08/02 05:50:04;;;;;;;6.83;4.73;;;20.10;62.10;;;17.69;66.17;97742.09;4966817;28;20476;-79
2021/08/02 05:52:33;;;;;;;6.10;4.13;;;20.30;61.60;;;18.05;65.25;97742.19;4974341;28;20970;-79
2021/08/02 05:55:00;;;;;;;4.80;4.40;;;20.40;61.70;;;18.25;64.38;97746.03;4955144;28;20818;-79
2021/08/02 05:57:27;;;;;;;4.73;4.10;;;20.90;60.80;;;18.04;64.71;97745.16;4963769;28;20488;-80
2021/08/02 05:59:54;;;;;;;5.13;4.67;;;20.70;60.50;;;17.27;66.34;97765.66;4959704;28;20442;-80
2021/08/02 06:02:21;;;;;;;7.67;5.23;;;19.50;61.40;;;16.99;67.45;97754.88;4969376;28;20451;-79
2021/08/02 06:04:48;;;;;;;8.63;5.07;;;18.80;62.80;;;16.60;68.54;97768.75;4965999;28;20491;-79
2021/08/02 06:07:15;;;;;;;7.10;4.60;;;18.10;64.20;;;16.60;69.05;97768.75;4973108;28;20971;-79
2021/08/02 06:09:43;;;;;;;6.40;5.00;;;17.90;65.40;;;16.53;69.62;97762.72;4973614;28;20499;-79
2021/08/02 06:12:10;;;;;;;5.10;4.70;;;17.80;66.00;;;16.62;69.04;97777.53;4967911;28;20478;-78
2021/08/02 06:14:38;;;;;;;6.73;4.60;;;17.90;65.80;;;16.57;69.77;97769.28;4965410;28;20501;-78
2021/08/02 06:17:05;;;;;;;7.53;5.90;;;17.80;66.60;;;16.66;69.05;97777.78;4959578;28;20591;-79
2021/08/02 06:19:33;;;;;;;5.37;4.90;;;17.70;66.40;;;16.87;68.47;97767.84;4970577;28;20448;-78
2021/08/02 06:22:00;;;;;;;6.80;5.23;;;18.10;66.10;;;17.12;67.93;97777.31;4959151;28;21055;-79
2021/08/02 06:24:27;;;;;;;5.50;5.10;;;18.40;65.80;;;17.04;68.22;97780.53;4963471;28;20450;-78
2021/08/02 06:26:55;;;;;;;4.80;4.40;;;18.50;65.60;;;16.99;68.40;97782.16;4967038;28;20480;-81
2021/08/02 06:29:22;;;;;;;5.30;4.90;;;18.20;65.80;;;16.90;68.31;97769.25;4971318;28;20592;-78
2021/08/02 06:31:49;;;;;;;5.40;5.00;;;18.20;66.20;;;17.14;68.11;97777.88;4968354;28;20465;-78
2021/08/02 06:34:16;;;;;;;4.90;4.40;;;18.20;66.30;;;17.16;67.83;97781.16;4944246;28;20563;-80
2021/08/02 06:36:43;;;;;;;6.20;4.73;;;18.40;65.80;;;16.91;67.76;97774.44;4963054;28;20460;-79
2021/08/02 06:39:10;;;;;;;7.77;4.27;;;18.30;65.70;;;17.12;67.60;97771.88;4959989;28;22347;-79
2021/08/02 06:41:37;;;;;;;4.70;4.30;;;18.20;66.10;;;17.31;67.78;97783.16;4970949;28;20496;-80
2021/08/02 06:44:06;;;;;;;5.07;4.68;;;18.40;66.30;;;17.16;67.26;97792.09;4972101;28;20460;-88
2021/08/02 06:46:33;;;;;;;4.70;4.30;;;18.40;65.60;;;16.81;67.71;97777.09;4973747;28;20280;-90
2021/08/02 06:49:01;;;;;;;4.37;4.07;;;18.10;65.50;;;16.71;67.74;97770.47;4932920;28;20460;-91
2021/08/02 06:51:28;;;;;;;5.40;4.90;;;18.00;65.90;;;16.97;67.79;97778.84;4973207;28;20536;-90
2021/08/02 06:53:56;;;;;;;4.97;4.33;;;18.00;66.60;;;17.02;68.12;97785.44;4968748;28;20465;-89
2021/08/02 06:56:24;;;;;;;4.23;3.90;;;18.10;66.30;;;16.88;67.81;97755.84;4960325;28;20457;-89
2021/08/02 06:58:52;;;;;;;4.57;4.17;;;18.20;66.30;;;16.55;66.98;97667.81;4962473;28;20456;-89
2021/08/02 07:01:21;;;;;;;4.27;3.90;;;18.30;66.20;;;16.57;68.17;97721.03;4952119;28;20473;-90
2021/08/02 07:03:48;;;;;;;5.30;4.80;;;18.20;66.30;;;17.06;67.96;97797.47;4966983;28;20457;-89
2021/08/02 07:06:15;;;;;;;5.40;5.00;;;18.10;66.10;;;16.56;68.45;97773.09;4949116;29;20442;-86
2021/08/02 07:08:42;;;;;;;4.80;4.40;;;18.00;66.20;;;16.36;68.54;97774.56;4959797;28;20559;-88
2021/08/02 07:11:12;;;;;;;4.80;4.40;;;17.70;66.30;;;16.71;68.49;97803.22;4960456;28;20453;-87
2021/08/02 07:13:39;;;;;;;8.83;4.80;;;17.70;66.70;;;16.64;68.44;97791.72;4968867;28;20815;-86
2021/08/02 07:16:06;;;;;;;5.20;4.70;;;17.70;66.80;;;16.80;67.89;97803.53;4952964;28;20453;-86
2021/08/02 07:18:35;;;;;;;5.33;4.87;;;17.80;66.30;;;16.40;68.63;97794.78;4955584;29;20496;-86
2021/08/02 07:21:03;;;;;;;4.97;4.57;;;17.80;66.30;;;16.53;68.11;97779.06;4969288;28;20814;-85
2021/08/02 07:23:31;;;;;;;5.00;4.40;;;17.80;66.30;;;16.55;68.34;97809.63;4957758;28;20464;-86
2021/08/02 07:25:58;;;;;;;4.83;4.43;;;17.70;66.40;;;16.59;68.37;97777.22;4975397;28;20903;-86
2021/08/02 07:28:27;;;;;;;4.93;4.43;;;17.80;66.70;;;16.75;67.20;97734.50;4978729;28;20957;-87
2021/08/02 07:30:54;;;;;;;6.07;5.50;;;18.10;66.70;;;16.95;67.67;97788.38;4989508;28;20516;-88
2021/08/02 07:33:22;;;;;;;6.20;5.13;;;18.20;66.40;;;16.90;68.42;97805.53;4976827;28;21078;-87
2021/08/02 07:35:51;;;;;;;7.00;5.00;;;18.10;66.30;;;17.32;66.83;97812.13;4969796;28;20505;-87
2021/08/02 07:38:18;;;;;;;5.73;5.23;;;18.20;66.30;;;17.14;66.96;97797.00;4972701;28;21257;-87
2021/08/02 07:40:47;;;;;;;9.93;6.20;;;18.40;65.60;;;17.81;65.65;97808.22;4971788;28;20998;-88
2021/08/02 07:43:14;;;;;;;5.77;5.23;;;18.60;65.70;;;18.09;63.83;97814.34;4981475;28;20446;-89
2021/08/02 07:45:41;;;;;;;5.00;4.60;;;19.10;64.50;;;17.91;64.80;97821.13;4994761;28;20457;-89
2021/08/02 07:48:08;;;;;;;5.40;5.00;;;19.00;64.30;;;18.19;63.61;97799.06;4989433;28;20484;-86
2021/08/02 07:50:35;;;;;;;6.10;5.10;;;19.20;64.10;;;18.42;63.50;97816.88;4981132;28;20533;-83
2021/08/02 07:53:04;;;;;;;7.20;6.60;;;19.40;64.20;;;18.41;62.78;97817.97;4978864;28;20445;-83
2021/08/02 07:55:31;;;;;;;6.03;5.47;;;19.50;63.40;;;17.95;63.56;97802.25;4975440;28;20532;-81
2021/08/02 07:57:58;;;;;;;5.40;4.57;;;19.40;63.00;;;17.98;64.21;97818.13;4973372;28;20484;-82
2021/08/02 08:00:25;;;;;;;5.33;4.90;;;19.10;63.40;;;18.31;63.28;97812.47;4974694;28;20474;-82
2021/08/02 08:02:52;;;;;;;6.23;5.30;;;19.30;63.60;;;18.39;62.82;97807.28;4976265;28;20437;-83
2021/08/02 08:05:19;;;;;;;5.20;4.70;;;19.50;63.40;;;18.69;62.62;97813.88;4966907;28;20477;-86
2021/08/02 08:07:48;;;;;;;7.00;4.40;;;19.60;63.30;;;18.89;61.80;97825.94;4967787;28;20592;-85
2021/08/02 08:10:19;;;;;;;4.60;4.20;;;20.10;62.80;;;19.06;60.97;97828.38;4972961;28;20949;-88
2021/08/02 08:12:46;;;;;;;5.50;5.00;;;20.20;62.10;;;18.83;61.47;97811.41;4977737;28;20492;-88
2021/08/02 08:15:15;;;;;;;5.73;5.23;;;20.20;61.90;;;18.99;60.74;97792.28;4953025;28;20473;-86
2021/08/02 08:17:46;;;;;;;6.80;5.57;;;20.10;62.00;;;19.08;61.19;97822.66;4966289;28;20507;-90
2021/08/02 08:20:19;;;;;;;5.90;5.37;;;20.20;62.10;;;19.40;60.00;97825.03;4958660;28;20606;-85
2021/08/02 08:22:46;;;;;;;6.13;4.03;;;20.40;61.50;;;19.48;59.23;97820.09;4964173;28;20468;-85
2021/08/02 08:25:15;;;;;;;4.50;4.10;;;20.50;61.00;;;19.67;59.18;97806.59;4973287;28;20880;-86
2021/08/02 08:27:43;;;;;;;5.03;4.53;;;20.80;61.10;;;19.98;58.50;97822.94;4963711;28;20453;-86
2021/08/02 08:30:12;;;;;;;4.73;3.67;;;20.80;61.00;;;20.08;57.91;97805.59;4971819;28;20895;-86
2021/08/02 08:32:40;;;;;;;4.77;4.23;;;21.20;60.70;;;20.36;56.67;97827.94;4971425;28;20560;-86
2021/08/02 08:35:10;;;;;;;11.60;4.30;;;21.40;60.20;;;20.00;57.87;97826.22;4955150;28;20472;-86
2021/08/02 08:37:37;;;;;;;4.30;4.00;;;21.10;59.60;;;19.68;58.16;97819.19;4970814;28;20449;-86
2021/08/02 08:40:08;;;;;;;3.93;3.63;;;21.00;59.60;;;19.43;59.12;97820.91;4970442;28;20453;-86
2021/08/02 08:42:38;;;;;;;4.27;3.77;;;20.70;59.80;;;18.91;60.70;97829.19;4965279;28;21071;-86
2021/08/02 08:45:07;;;;;;;6.77;5.73;;;20.30;60.10;;;18.76;61.21;97824.53;4963281;28;20468;-86
2021/08/02 08:47:35;;;;;;;6.03;4.60;;;20.10;60.60;;;19.33;60.22;97834.63;4937290;29;20466;-86
2021/08/02 08:50:05;;;;;;;5.63;3.90;;;20.30;61.10;;;19.38;59.74;97831.91;4963103;28;20469;-86
2021/08/02 08:52:36;;;;;;;6.60;4.50;;;20.40;60.90;;;19.82;58.71;97831.19;4970630;28;20905;-86
2021/08/02 08:55:08;;;;;;;4.93;4.43;;;20.70;60.80;;;19.87;58.10;97826.78;4972197;28;20501;-86
2021/08/02 08:57:36;;;;;;;4.93;4.23;;;20.80;60.10;;;19.78;58.38;97835.59;4973271;28;20456;-87
2021/08/02 09:00:07;;;;;;;4.20;3.80;;;21.00;60.00;;;19.96;58.28;97838.84;4972592;28;20823;-86
2021/08/02 09:02:35;;;;;;;3.80;3.47;;;20.90;60.10;;;20.18;57.30;97826.66;4955310;28;20460;-86
2021/08/02 09:05:06;;;;;;;3.97;3.67;;;21.20;59.80;;;19.96;57.11;97817.72;4981278;28;20956;-87
2021/08/02 09:07:38;;;;;;;5.07;4.20;;;21.00;59.20;;;19.87;58.32;97848.72;4989350;28;20453;-86
2021/08/02 09:10:09;;;;;;;9.47;8.50;;;20.90;59.80;;;19.52;57.97;97822.00;4993352;28;20643;-86
2021/08/02 09:12:48;;;;;;;8.93;5.30;;;21.00;59.20;;;19.33;58.42;97790.81;4983465;28;20453;-86
2021/08/02 09:15:16;;;;;;;4.20;3.47;;;20.80;59.50;;;19.70;58.24;97830.69;4972679;28;20465;-86
2021/08/02 09:17:43;;;;;;;3.67;3.37;;;20.70;59.70;;;20.01;57.53;97837.97;4976110;28;20511;-86
2021/08/02 09:20:22;;;;;;;3.90;3.60;;;21.00;59.60;;;19.94;58.03;97843.78;4971667;28;20489;-86
2021/08/02 09:22:52;;;;;;;4.00;3.67;;;20.90;59.70;;;19.66;58.43;97832.38;4980696;28;20532;-87
2021/08/02 09:25:22;;;;;;;3.60;3.30;;;21.00;59.50;;;20.04;57.46;97837.44;4970330;28;20488;-86
2021/08/02 09:27:52;;;;;;;3.67;3.33;;;21.00;59.40;;;20.32;56.92;97838.63;4965370;29;20516;-86
2021/08/02 09:30:22;;;;;;;3.80;3.40;;;21.10;59.30;;;19.93;57.20;97817.47;4974918;28;20843;-87
2021/08/02 09:32:54;;;;;;;7.03;6.30;;;21.20;58.90;;;20.28;56.30;97836.75;4988568;28;20536;-86
2021/08/02 09:35:37;;;;;;;5.80;4.67;;;21.30;58.80;;;20.20;55.61;97824.44;4976935;28;20479;-86
2021/08/02 09:38:08;;;;;;;3.00;2.80;;;21.30;58.60;;;19.62;56.87;97842.22;4996523;28;20445;-86
2021/08/02 09:40:42;;;;;;;3.53;3.23;;;21.10;58.00;;;18.61;58.48;97781.59;4984950;28;20527;-86
2021/08/02 09:43:16;;;;;;;3.40;3.10;;;20.40;58.20;;;18.90;59.21;97810.31;4971755;28;20524;-86
2021/08/02 09:45:46;;;;;;;5.57;3.87;;;20.20;59.40;;;19.23;58.82;97835.47;4951524;29;20503;-86
2021/08/02 09:48:15;;;;;;;5.73;3.90;;;20.30;59.20;;;19.47;58.53;97832.16;4976065;28;20457;-86
2021/08/02 09:50:45;;;;;;;4.37;3.77;;;20.40;59.20;;;19.71;57.80;97835.06;4971410;28;20457;-86
2021/08/02 09:53:16;;;;;;;6.33;3.90;;;20.70;59.10;;;19.61;57.18;97835.09;4958760;29;20442;-86
2021/08/02 09:55:45;;;;;;;3.83;2.97;;;20.70;58.40;;;19.95;56.26;97812.53;4966506;28;20512;-86
2021/08/02 09:58:20;;;;;;;3.80;3.50;;;21.20;58.70;;;20.54;54.46;97801.72;4973971;28;20488;-87
2021/08/02 10:00:48;;;;;;;4.63;4.33;;;21.60;58.20;;;20.13;55.89;97818.47;4964866;28;20487;-86
2021/08/02 10:03:16;;;;;;;3.93;3.67;;;21.50;57.80;;;20.10;55.97;97828.91;4955674;29;20461;-86
2021/08/02 10:05:44;;;;;;;4.50;3.33;;;21.30;58.00;;;19.75;55.93;97813.41;4976320;28;20461;-86
2021/08/02 10:08:11;;;;;;;3.30;3.00;;;21.00;57.50;;;19.52;56.22;97822.00;4961226;28;20828;-86
2021/08/02 10:10:39;;;;;;;3.50;3.30;;;21.00;57.40;;;19.46;55.46;97792.16;4980062;28;20491;-86
2021/08/02 10:13:07;;;;;;;4.50;3.27;;;20.90;57.20;;;20.12;55.21;97812.16;4982303;28;20948;-86
2021/08/02 10:15:36;;;;;;;3.57;3.20;;;21.20;57.60;;;19.87;55.76;97810.34;4979896;28;20517;-87
2021/08/02 10:18:07;;;;;;;3.60;3.37;;;21.20;57.50;;;19.56;56.38;97826.91;4955690;28;20453;-87
2021/08/02 10:20:37;;;;;;;2.90;2.70;;;20.70;57.70;;;20.12;54.42;97798.44;4959000;29;20585;-87
2021/08/02 10:23:05;;;;;;;3.90;2.90;;;21.00;57.30;;;20.97;53.22;97812.13;4971635;28;20513;-87
2021/08/02 10:25:38;;;;;;;4.83;2.80;;;21.70;57.50;;;20.91;52.09;97822.31;4979731;28;20475;-87
2021/08/02 10:28:08;;;;;;;4.20;3.10;;;22.00;56.30;;;20.99;52.37;97811.81;4969652;28;20891;-87